Terminal Aerodrome Forecast
Issued by NWS

Home | Current Version | Previous Version | Text Only | Print | Product List | Glossary Off
Versions: 1 2 3 4 5 6 7 8 9 10 11 12 13 14 15 16 17 18 19 20 21 22 23 24

000
FTUS43 KBIS 241100
TAFDIK
TAF
KDIK 241120Z 2412/2512 30011KT P6SM SCT020 BKN045
     FM241600 34008KT P6SM -SHSN SCT008 BKN020 OVC060
     FM241800 VRB04KT 1/2SM SN OVC015
     FM250000 11007KT 1/2SM SN SCT009 OVC012
     FM250500 10009KT 1SM -SN SCT006 OVC010=

USA.gov is the U.S. government's official web portal to all federal, state and local government web resources and services.